sensor_id;sensor_type;location;lat;lon;timestamp;temperature;humidity
12885;DHT22;6510;51.362;7.370;2023-05-14T00:00:53;11.30;99.90
12885;DHT22;6510;51.362;7.370;2023-05-14T00:03:18;11.10;99.90
12885;DHT22;6510;51.362;7.370;2023-05-14T00:05:44;10.90;99.90
12885;DHT22;6510;51.362;7.370;2023-05-14T00:08:09;10.80;99.90
12885;DHT22;6510;51.362;7.370;2023-05-14T00:10:35;10.90;99.90
12885;DHT22;6510;51.362;7.370;2023-05-14T00:13:01;10.90;99.90
12885;DHT22;6510;51.362;7.370;2023-05-14T00:15:26;10.90;99.90
12885;DHT22;6510;51.362;7.370;2023-05-14T00:17:52;10.90;99.90
12885;DHT22;6510;51.362;7.370;2023-05-14T00:20:17;10.70;99.90
12885;DHT22;6510;51.362;7.370;2023-05-14T00:22:43;10.60;99.90
12885;DHT22;6510;51.362;7.370;2023-05-14T00:25:09;10.60;99.90
12885;DHT22;6510;51.362;7.370;2023-05-14T00:27:35;10.50;99.90
12885;DHT22;6510;51.362;7.370;2023-05-14T00:30:03;10.40;99.90
12885;DHT22;6510;51.362;7.370;2023-05-14T00:32:29;10.30;99.90
12885;DHT22;6510;51.362;7.370;2023-05-14T00:34:55;10.20;99.90
12885;DHT22;6510;51.362;7.370;2023-05-14T00:37:20;10.20;99.90
12885;DHT22;6510;51.362;7.370;2023-05-14T00:39:46;10.40;99.90
12885;DHT22;6510;51.362;7.370;2023-05-14T00:42:11;10.30;99.90
12885;DHT22;6510;51.362;7.370;2023-05-14T00:44:37;10.30;99.90
12885;DHT22;6510;51.362;7.370;2023-05-14T00:47:03;10.30;99.90
12885;DHT22;6510;51.362;7.370;2023-05-14T00:49:29;10.50;99.90
12885;DHT22;6510;51.362;7.370;2023-05-14T00:51:55;10.60;99.90
12885;DHT22;6510;51.362;7.370;2023-05-14T00:54:23;10.30;99.90
12885;DHT22;6510;51.362;7.370;2023-05-14T00:56:49;10.30;99.90
12885;DHT22;6510;51.362;7.370;2023-05-14T00:59:15;10.50;99.90
12885;DHT22;6510;51.362;7.370;2023-05-14T01:01:41;10.30;99.90
12885;DHT22;6510;51.362;7.370;2023-05-14T01:04:08;10.10;99.90
12885;DHT22;6510;51.362;7.370;2023-05-14T01:06:45;10.10;99.90
12885;DHT22;6510;51.362;7.370;2023-05-14T01:09:43;10.20;99.90
12885;DHT22;6510;51.362;7.370;2023-05-14T01:15:11;9.70;99.90
12885;DHT22;6510;51.362;7.370;2023-05-14T01:17:40;9.70;99.90
12885;DHT22;6510;51.362;7.370;2023-05-14T01:20:07;9.80;99.90
12885;DHT22;6510;51.362;7.370;2023-05-14T01:22:33;10.00;99.90
12885;DHT22;6510;51.362;7.370;2023-05-14T01:24:59;10.00;99.90
12885;DHT22;6510;51.362;7.370;2023-05-14T01:27:27;9.70;99.90
12885;DHT22;6510;51.362;7.370;2023-05-14T01:30:12;9.40;99.90
12885;DHT22;6510;51.362;7.370;2023-05-14T01:32:41;9.30;99.90
12885;DHT22;6510;51.362;7.370;2023-05-14T01:35:08;9.30;99.90
12885;DHT22;6510;51.362;7.370;2023-05-14T01:37:35;9.40;99.90
12885;DHT22;6510;51.362;7.370;2023-05-14T01:40:03;9.60;99.90
12885;DHT22;6510;51.362;7.370;2023-05-14T01:42:29;9.70;99.90
12885;DHT22;6510;51.362;7.370;2023-05-14T01:44:55;9.70;99.90
12885;DHT22;6510;51.362;7.370;2023-05-14T01:47:21;9.60;99.90
12885;DHT22;6510;51.362;7.370;2023-05-14T01:49:46;9.60;99.90
12885;DHT22;6510;51.362;7.370;2023-05-14T01:52:12;9.70;99.90
12885;DHT22;6510;51.362;7.370;2023-05-14T01:54:38;9.60;99.90
12885;DHT22;6510;51.362;7.370;2023-05-14T01:57:03;9.70;99.90
12885;DHT22;6510;51.362;7.370;2023-05-14T01:59:29;9.70;99.90
12885;DHT22;6510;51.362;7.370;2023-05-14T02:01:55;9.90;99.90
12885;DHT22;6510;51.362;7.370;2023-05-14T02:04:20;9.80;99.90
12885;DHT22;6510;51.362;7.370;2023-05-14T02:06:46;9.80;99.90
12885;DHT22;6510;51.362;7.370;2023-05-14T02:09:11;9.70;99.90
12885;DHT22;6510;51.362;7.370;2023-05-14T02:11:37;9.70;99.90
12885;DHT22;6510;51.362;7.370;2023-05-14T02:14:03;9.60;99.90
12885;DHT22;6510;51.362;7.370;2023-05-14T02:16:28;9.50;99.90
12885;DHT22;6510;51.362;7.370;2023-05-14T02:18:54;9.50;99.90
12885;DHT22;6510;51.362;7.370;2023-05-14T02:21:19;9.50;99.90
12885;DHT22;6510;51.362;7.370;2023-05-14T02:23:45;9.40;99.90
12885;DHT22;6510;51.362;7.370;2023-05-14T02:26:12;9.40;99.90
12885;DHT22;6510;51.362;7.370;2023-05-14T02:28:38;9.40;99.90
12885;DHT22;6510;51.362;7.370;2023-05-14T02:31:04;9.20;99.90
12885;DHT22;6510;51.362;7.370;2023-05-14T02:33:29;9.10;99.90
12885;DHT22;6510;51.362;7.370;2023-05-14T02:35:55;9.20;99.90
12885;DHT22;6510;51.362;7.370;2023-05-14T02:38:21;9.30;99.90
12885;DHT22;6510;51.362;7.370;2023-05-14T02:40:47;9.40;99.90
12885;DHT22;6510;51.362;7.370;2023-05-14T02:43:12;9.50;99.90
12885;DHT22;6510;51.362;7.370;2023-05-14T02:45:38;9.40;99.90
12885;DHT22;6510;51.362;7.370;2023-05-14T02:48:04;9.40;99.90
12885;DHT22;6510;51.362;7.370;2023-05-14T02:50:29;9.30;99.90
12885;DHT22;6510;51.362;7.370;2023-05-14T02:52:55;9.30;99.90
12885;DHT22;6510;51.362;7.370;2023-05-14T02:55:20;9.30;99.90
12885;DHT22;6510;51.362;7.370;2023-05-14T02:57:47;9.30;99.90
12885;DHT22;6510;51.362;7.370;2023-05-14T03:00:13;9.30;99.90
12885;DHT22;6510;51.362;7.370;2023-05-14T03:02:38;9.20;99.90
12885;DHT22;6510;51.362;7.370;2023-05-14T03:05:04;9.20;99.90
12885;DHT22;6510;51.362;7.370;2023-05-14T03:07:30;9.30;99.90
12885;DHT22;6510;51.362;7.370;2023-05-14T03:09:55;9.30;99.90
12885;DHT22;6510;51.362;7.370;2023-05-14T03:12:24;9.30;99.90
12885;DHT22;6510;51.362;7.370;2023-05-14T03:14:50;9.10;99.90
12885;DHT22;6510;51.362;7.370;2023-05-14T03:17:15;9.00;99.90
12885;DHT22;6510;51.362;7.370;2023-05-14T03:19:41;9.00;99.90
12885;DHT22;6510;51.362;7.370;2023-05-14T03:22:06;9.00;99.90
12885;DHT22;6510;51.362;7.370;2023-05-14T03:24:33;8.90;99.90
12885;DHT22;6510;51.362;7.370;2023-05-14T03:26:58;9.00;99.90
12885;DHT22;6510;51.362;7.370;2023-05-14T03:29:24;8.80;99.90
12885;DHT22;6510;51.362;7.370;2023-05-14T03:31:50;8.80;99.90
12885;DHT22;6510;51.362;7.370;2023-05-14T03:34:15;8.80;99.90
12885;DHT22;6510;51.362;7.370;2023-05-14T03:36:41;8.90;99.90
12885;DHT22;6510;51.362;7.370;2023-05-14T03:39:06;9.00;99.90
12885;DHT22;6510;51.362;7.370;2023-05-14T03:41:34;9.20;99.90
12885;DHT22;6510;51.362;7.370;2023-05-14T03:44:00;9.20;99.90
12885;DHT22;6510;51.362;7.370;2023-05-14T03:46:25;9.20;99.90
12885;DHT22;6510;51.362;7.370;2023-05-14T03:48:51;9.00;99.90
12885;DHT22;6510;51.362;7.370;2023-05-14T03:51:17;8.90;99.90
12885;DHT22;6510;51.362;7.370;2023-05-14T03:53:43;8.90;99.90
12885;DHT22;6510;51.362;7.370;2023-05-14T03:56:08;8.80;99.90
12885;DHT22;6510;51.362;7.370;2023-05-14T03:58:34;8.80;99.90
12885;DHT22;6510;51.362;7.370;2023-05-14T04:00:59;8.90;99.90
12885;DHT22;6510;51.362;7.370;2023-05-14T04:03:25;9.00;99.90
12885;DHT22;6510;51.362;7.370;2023-05-14T04:05:51;9.00;99.90
12885;DHT22;6510;51.362;7.370;2023-05-14T04:08:16;8.90;99.90
12885;DHT22;6510;51.362;7.370;2023-05-14T04:10:42;8.90;99.90
12885;DHT22;6510;51.362;7.370;2023-05-14T04:13:08;8.90;99.90
12885;DHT22;6510;51.362;7.370;2023-05-14T04:15:33;8.90;99.90
12885;DHT22;6510;51.362;7.370;2023-05-14T04:18:00;9.00;99.90
12885;DHT22;6510;51.362;7.370;2023-05-14T04:20:26;9.10;99.90
12885;DHT22;6510;51.362;7.370;2023-05-14T04:22:52;9.20;99.90
12885;DHT22;6510;51.362;7.370;2023-05-14T04:25:18;9.40;99.90
12885;DHT22;6510;51.362;7.370;2023-05-14T04:27:44;9.70;99.90
12885;DHT22;6510;51.362;7.370;2023-05-14T04:30:10;10.20;99.90
12885;DHT22;6510;51.362;7.370;2023-05-14T04:32:36;10.20;99.90
12885;DHT22;6510;51.362;7.370;2023-05-14T04:35:03;10.20;99.90
12885;DHT22;6510;51.362;7.370;2023-05-14T04:37:29;10.10;99.90
12885;DHT22;6510;51.362;7.370;2023-05-14T04:39:55;10.40;99.90
12885;DHT22;6510;51.362;7.370;2023-05-14T04:42:21;10.50;99.90
12885;DHT22;6510;51.362;7.370;2023-05-14T04:44:46;10.50;99.90
12885;DHT22;6510;51.362;7.370;2023-05-14T04:47:12;10.70;99.90
12885;DHT22;6510;51.362;7.370;2023-05-14T04:49:38;11.10;99.90
12885;DHT22;6510;51.362;7.370;2023-05-14T04:52:05;11.70;99.90
12885;DHT22;6510;51.362;7.370;2023-05-14T04:54:30;11.90;99.90
12885;DHT22;6510;51.362;7.370;2023-05-14T04:56:59;11.80;99.90
12885;DHT22;6510;51.362;7.370;2023-05-14T04:59:32;11.80;99.90
12885;DHT22;6510;51.362;7.370;2023-05-14T05:02:07;12.00;99.90
12885;DHT22;6510;51.362;7.370;2023-05-14T05:04:36;11.90;99.90
12885;DHT22;6510;51.362;7.370;2023-05-14T05:07:02;12.30;99.90
12885;DHT22;6510;51.362;7.370;2023-05-14T05:09:27;12.60;99.90
12885;DHT22;6510;51.362;7.370;2023-05-14T05:11:53;13.60;99.90
12885;DHT22;6510;51.362;7.370;2023-05-14T05:14:22;14.60;99.90
12885;DHT22;6510;51.362;7.370;2023-05-14T05:16:54;15.10;99.90
12885;DHT22;6510;51.362;7.370;2023-05-14T05:19:20;15.50;99.90
12885;DHT22;6510;51.362;7.370;2023-05-14T05:21:46;15.80;99.90
12885;DHT22;6510;51.362;7.370;2023-05-14T05:24:11;16.00;99.90
12885;DHT22;6510;51.362;7.370;2023-05-14T05:26:37;16.40;99.90
12885;DHT22;6510;51.362;7.370;2023-05-14T05:29:04;16.40;99.90
12885;DHT22;6510;51.362;7.370;2023-05-14T05:31:30;16.40;99.90
12885;DHT22;6510;51.362;7.370;2023-05-14T05:33:57;16.20;99.90
12885;DHT22;6510;51.362;7.370;2023-05-14T05:36:23;16.90;99.90
12885;DHT22;6510;51.362;7.370;2023-05-14T05:38:49;17.80;99.90
12885;DHT22;6510;51.362;7.370;2023-05-14T05:41:14;18.00;99.90
12885;DHT22;6510;51.362;7.370;2023-05-14T05:43:40;17.80;99.90
12885;DHT22;6510;51.362;7.370;2023-05-14T05:46:06;17.90;99.90
12885;DHT22;6510;51.362;7.370;2023-05-14T05:48:31;16.60;99.90
12885;DHT22;6510;51.362;7.370;2023-05-14T05:50:57;16.20;99.90
12885;DHT22;6510;51.362;7.370;2023-05-14T05:53:25;16.10;99.90
12885;DHT22;6510;51.362;7.370;2023-05-14T05:55:51;15.70;99.90
12885;DHT22;6510;51.362;7.370;2023-05-14T05:58:20;15.60;99.90
12885;DHT22;6510;51.362;7.370;2023-05-14T06:00:46;16.30;99.90
12885;DHT22;6510;51.362;7.370;2023-05-14T06:03:12;17.30;99.90
12885;DHT22;6510;51.362;7.370;2023-05-14T06:05:38;17.50;99.90
12885;DHT22;6510;51.362;7.370;2023-05-14T06:08:04;17.50;99.90
12885;DHT22;6510;51.362;7.370;2023-05-14T06:10:30;17.70;99.90
12885;DHT22;6510;51.362;7.370;2023-05-14T06:12:55;18.00;99.90
12885;DHT22;6510;51.362;7.370;2023-05-14T06:15:22;19.40;99.90
12885;DHT22;6510;51.362;7.370;2023-05-14T06:17:47;19.70;99.90
12885;DHT22;6510;51.362;7.370;2023-05-14T06:20:13;19.40;99.90
12885;DHT22;6510;51.362;7.370;2023-05-14T06:22:39;19.40;99.90
12885;DHT22;6510;51.362;7.370;2023-05-14T06:25:05;19.00;99.90
12885;DHT22;6510;51.362;7.370;2023-05-14T06:27:30;19.30;99.90
12885;DHT22;6510;51.362;7.370;2023-05-14T06:29:56;19.80;99.90
12885;DHT22;6510;51.362;7.370;2023-05-14T06:32:22;19.70;99.90
12885;DHT22;6510;51.362;7.370;2023-05-14T06:34:47;19.70;99.90
12885;DHT22;6510;51.362;7.370;2023-05-14T06:37:13;20.30;99.90
12885;DHT22;6510;51.362;7.370;2023-05-14T06:39:39;20.30;99.90
12885;DHT22;6510;51.362;7.370;2023-05-14T06:42:05;20.60;99.90
12885;DHT22;6510;51.362;7.370;2023-05-14T06:44:31;20.90;99.90
12885;DHT22;6510;51.362;7.370;2023-05-14T06:46:57;21.40;99.90
12885;DHT22;6510;51.362;7.370;2023-05-14T06:49:22;21.00;99.90
12885;DHT22;6510;51.362;7.370;2023-05-14T06:51:48;20.80;99.90
12885;DHT22;6510;51.362;7.370;2023-05-14T06:54:14;20.50;99.90
12885;DHT22;6510;51.362;7.370;2023-05-14T06:56:39;20.90;99.90
12885;DHT22;6510;51.362;7.370;2023-05-14T06:59:05;20.90;99.90
12885;DHT22;6510;51.362;7.370;2023-05-14T07:01:31;21.40;99.90
12885;DHT22;6510;51.362;7.370;2023-05-14T07:03:56;22.40;99.90
12885;DHT22;6510;51.362;7.370;2023-05-14T07:06:22;22.30;99.90
12885;DHT22;6510;51.362;7.370;2023-05-14T07:08:48;22.30;99.90
12885;DHT22;6510;51.362;7.370;2023-05-14T07:11:14;22.30;99.90
12885;DHT22;6510;51.362;7.370;2023-05-14T07:13:40;22.70;99.90
12885;DHT22;6510;51.362;7.370;2023-05-14T07:16:06;22.20;99.90
12885;DHT22;6510;51.362;7.370;2023-05-14T07:18:34;22.10;99.90
12885;DHT22;6510;51.362;7.370;2023-05-14T07:21:06;22.30;99.90
12885;DHT22;6510;51.362;7.370;2023-05-14T07:23:37;22.50;99.90
12885;DHT22;6510;51.362;7.370;2023-05-14T07:26:04;22.70;99.90
12885;DHT22;6510;51.362;7.370;2023-05-14T07:28:30;22.40;99.90
12885;DHT22;6510;51.362;7.370;2023-05-14T07:30:56;23.00;99.90
12885;DHT22;6510;51.362;7.370;2023-05-14T07:33:23;22.10;99.90
12885;DHT22;6510;51.362;7.370;2023-05-14T07:35:49;22.80;99.90
12885;DHT22;6510;51.362;7.370;2023-05-14T07:38:15;22.80;99.90
12885;DHT22;6510;51.362;7.370;2023-05-14T07:40:41;23.10;99.90
12885;DHT22;6510;51.362;7.370;2023-05-14T07:43:06;22.40;99.90
12885;DHT22;6510;51.362;7.370;2023-05-14T07:45:32;23.50;99.90
12885;DHT22;6510;51.362;7.370;2023-05-14T07:47:58;23.90;99.90
12885;DHT22;6510;51.362;7.370;2023-05-14T07:50:23;24.20;99.90
12885;DHT22;6510;51.362;7.370;2023-05-14T07:52:49;23.40;99.90
12885;DHT22;6510;51.362;7.370;2023-05-14T07:55:14;23.50;99.90
12885;DHT22;6510;51.362;7.370;2023-05-14T07:57:43;24.10;99.90
12885;DHT22;6510;51.362;7.370;2023-05-14T08:00:11;24.40;99.90
12885;DHT22;6510;51.362;7.370;2023-05-14T08:02:36;24.50;99.90
12885;DHT22;6510;51.362;7.370;2023-05-14T08:05:02;24.20;99.90
12885;DHT22;6510;51.362;7.370;2023-05-14T08:07:29;23.50;99.90
12885;DHT22;6510;51.362;7.370;2023-05-14T08:09:55;23.40;99.90
12885;DHT22;6510;51.362;7.370;2023-05-14T08:12:22;23.90;99.90
12885;DHT22;6510;51.362;7.370;2023-05-14T08:14:47;23.50;99.90
12885;DHT22;6510;51.362;7.370;2023-05-14T08:17:13;23.40;99.90
12885;DHT22;6510;51.362;7.370;2023-05-14T08:19:39;23.50;99.90
12885;DHT22;6510;51.362;7.370;2023-05-14T08:22:04;23.20;99.90
12885;DHT22;6510;51.362;7.370;2023-05-14T08:24:30;23.50;99.90
12885;DHT22;6510;51.362;7.370;2023-05-14T08:26:56;23.90;99.90
12885;DHT22;6510;51.362;7.370;2023-05-14T08:29:21;24.50;99.90
12885;DHT22;6510;51.362;7.370;2023-05-14T08:31:48;24.40;99.90
12885;DHT22;6510;51.362;7.370;2023-05-14T08:34:14;24.20;99.90
12885;DHT22;6510;51.362;7.370;2023-05-14T08:36:40;24.80;99.90
12885;DHT22;6510;51.362;7.370;2023-05-14T08:39:05;24.30;99.90
12885;DHT22;6510;51.362;7.370;2023-05-14T08:41:34;24.80;99.90
12885;DHT22;6510;51.362;7.370;2023-05-14T08:44:06;25.20;99.90
12885;DHT22;6510;51.362;7.370;2023-05-14T08:46:35;25.00;99.90
12885;DHT22;6510;51.362;7.370;2023-05-14T08:51:53;24.80;99.90
12885;DHT22;6510;51.362;7.370;2023-05-14T08:54:18;24.40;99.90
12885;DHT22;6510;51.362;7.370;2023-05-14T08:56:47;24.60;99.90
12885;DHT22;6510;51.362;7.370;2023-05-14T08:59:13;25.00;99.90
12885;DHT22;6510;51.362;7.370;2023-05-14T09:01:43;24.90;99.90
12885;DHT22;6510;51.362;7.370;2023-05-14T09:04:11;25.20;99.90
12885;DHT22;6510;51.362;7.370;2023-05-14T09:06:38;25.00;99.90
12885;DHT22;6510;51.362;7.370;2023-05-14T09:09:04;25.30;99.90
12885;DHT22;6510;51.362;7.370;2023-05-14T09:11:30;25.40;99.90
12885;DHT22;6510;51.362;7.370;2023-05-14T09:13:56;25.90;99.90
12885;DHT22;6510;51.362;7.370;2023-05-14T09:16:22;26.20;99.90
12885;DHT22;6510;51.362;7.370;2023-05-14T09:18:50;25.60;99.90
12885;DHT22;6510;51.362;7.370;2023-05-14T09:21:17;24.90;99.90
12885;DHT22;6510;51.362;7.370;2023-05-14T09:23:44;24.90;99.90
12885;DHT22;6510;51.362;7.370;2023-05-14T09:26:16;24.90;99.90
12885;DHT22;6510;51.362;7.370;2023-05-14T09:28:42;24.90;99.90
12885;DHT22;6510;51.362;7.370;2023-05-14T09:31:08;25.50;99.90
12885;DHT22;6510;51.362;7.370;2023-05-14T09:33:34;25.70;99.90
12885;DHT22;6510;51.362;7.370;2023-05-14T09:36:01;25.50;99.90
12885;DHT22;6510;51.362;7.370;2023-05-14T09:38:28;26.00;99.90
12885;DHT22;6510;51.362;7.370;2023-05-14T09:40:54;25.60;99.90
12885;DHT22;6510;51.362;7.370;2023-05-14T09:43:20;25.10;99.90
12885;DHT22;6510;51.362;7.370;2023-05-14T09:45:46;25.00;99.90
12885;DHT22;6510;51.362;7.370;2023-05-14T09:48:12;25.60;99.90
12885;DHT22;6510;51.362;7.370;2023-05-14T09:50:42;26.10;99.90
12885;DHT22;6510;51.362;7.370;2023-05-14T09:53:07;26.70;99.90
12885;DHT22;6510;51.362;7.370;2023-05-14T09:55:37;25.50;99.90
12885;DHT22;6510;51.362;7.370;2023-05-14T09:58:04;26.20;99.90
12885;DHT22;6510;51.362;7.370;2023-05-14T10:00:33;25.70;99.90
12885;DHT22;6510;51.362;7.370;2023-05-14T10:03:03;26.10;99.90
12885;DHT22;6510;51.362;7.370;2023-05-14T10:05:40;26.00;99.90
12885;DHT22;6510;51.362;7.370;2023-05-14T10:08:16;26.10;99.90
12885;DHT22;6510;51.362;7.370;2023-05-14T10:10:44;26.00;99.90
12885;DHT22;6510;51.362;7.370;2023-05-14T10:13:14;26.20;99.90
12885;DHT22;6510;51.362;7.370;2023-05-14T10:15:53;26.60;99.90
12885;DHT22;6510;51.362;7.370;2023-05-14T10:18:22;27.00;99.90
12885;DHT22;6510;51.362;7.370;2023-05-14T10:20:59;26.00;99.90
12885;DHT22;6510;51.362;7.370;2023-05-14T10:23:28;25.40;99.90
12885;DHT22;6510;51.362;7.370;2023-05-14T10:25:55;26.20;99.90
12885;DHT22;6510;51.362;7.370;2023-05-14T10:28:21;25.20;99.90
12885;DHT22;6510;51.362;7.370;2023-05-14T10:30:47;24.30;99.90
12885;DHT22;6510;51.362;7.370;2023-05-14T10:33:14;24.70;99.90
12885;DHT22;6510;51.362;7.370;2023-05-14T10:38:26;25.20;99.90
12885;DHT22;6510;51.362;7.370;2023-05-14T10:40:57;25.00;99.90
12885;DHT22;6510;51.362;7.370;2023-05-14T10:43:26;25.90;99.90
12885;DHT22;6510;51.362;7.370;2023-05-14T10:45:54;25.50;99.90
12885;DHT22;6510;51.362;7.370;2023-05-14T10:48:20;25.90;99.90
12885;DHT22;6510;51.362;7.370;2023-05-14T10:50:50;26.20;99.90
12885;DHT22;6510;51.362;7.370;2023-05-14T10:53:16;26.50;99.90
12885;DHT22;6510;51.362;7.370;2023-05-14T10:55:43;26.10;99.90
12885;DHT22;6510;51.362;7.370;2023-05-14T10:58:12;25.70;99.90
12885;DHT22;6510;51.362;7.370;2023-05-14T11:00:38;27.10;99.90
12885;DHT22;6510;51.362;7.370;2023-05-14T11:03:05;27.20;99.90
12885;DHT22;6510;51.362;7.370;2023-05-14T11:05:31;25.70;99.90
12885;DHT22;6510;51.362;7.370;2023-05-14T11:07:58;25.80;99.90
12885;DHT22;6510;51.362;7.370;2023-05-14T11:10:26;25.80;99.90
12885;DHT22;6510;51.362;7.370;2023-05-14T11:12:56;27.00;99.90
12885;DHT22;6510;51.362;7.370;2023-05-14T11:15:23;27.00;99.90
12885;DHT22;6510;51.362;7.370;2023-05-14T11:17:51;26.90;99.90
12885;DHT22;6510;51.362;7.370;2023-05-14T11:20:17;25.90;99.90
12885;DHT22;6510;51.362;7.370;2023-05-14T11:22:44;26.60;99.90
12885;DHT22;6510;51.362;7.370;2023-05-14T11:25:11;27.00;99.90
12885;DHT22;6510;51.362;7.370;2023-05-14T11:27:44;27.80;99.90
12885;DHT22;6510;51.362;7.370;2023-05-14T11:30:17;28.20;99.90
12885;DHT22;6510;51.362;7.370;2023-05-14T11:32:47;26.80;98.90
12885;DHT22;6510;51.362;7.370;2023-05-14T11:35:14;26.40;98.00
12885;DHT22;6510;51.362;7.370;2023-05-14T11:37:40;25.90;98.40
12885;DHT22;6510;51.362;7.370;2023-05-14T11:40:08;27.30;99.90
12885;DHT22;6510;51.362;7.370;2023-05-14T11:42:36;28.00;99.90
12885;DHT22;6510;51.362;7.370;2023-05-14T11:45:03;28.10;99.60
12885;DHT22;6510;51.362;7.370;2023-05-14T11:47:29;27.40;99.80
12885;DHT22;6510;51.362;7.370;2023-05-14T11:49:55;26.20;97.30
12885;DHT22;6510;51.362;7.370;2023-05-14T11:52:21;26.40;97.40
12885;DHT22;6510;51.362;7.370;2023-05-14T11:54:47;25.90;97.30
12885;DHT22;6510;51.362;7.370;2023-05-14T11:57:20;26.20;99.90
12885;DHT22;6510;51.362;7.370;2023-05-14T11:59:47;27.40;97.70
12885;DHT22;6510;51.362;7.370;2023-05-14T12:02:17;25.30;98.70
12885;DHT22;6510;51.362;7.370;2023-05-14T12:04:43;24.70;99.90
12885;DHT22;6510;51.362;7.370;2023-05-14T12:07:11;25.70;99.90
12885;DHT22;6510;51.362;7.370;2023-05-14T12:09:41;26.40;99.90
12885;DHT22;6510;51.362;7.370;2023-05-14T12:12:10;26.10;99.90
12885;DHT22;6510;51.362;7.370;2023-05-14T12:14:41;26.00;99.90
12885;DHT22;6510;51.362;7.370;2023-05-14T12:17:15;26.60;99.90
12885;DHT22;6510;51.362;7.370;2023-05-14T12:19:41;27.40;99.90
12885;DHT22;6510;51.362;7.370;2023-05-14T12:22:09;27.60;99.90
12885;DHT22;6510;51.362;7.370;2023-05-14T12:24:35;27.20;98.50
12885;DHT22;6510;51.362;7.370;2023-05-14T12:27:01;26.70;99.10
12885;DHT22;6510;51.362;7.370;2023-05-14T12:29:27;26.10;98.00
12885;DHT22;6510;51.362;7.370;2023-05-14T12:31:55;27.30;99.90
12885;DHT22;6510;51.362;7.370;2023-05-14T12:34:21;27.20;99.90
12885;DHT22;6510;51.362;7.370;2023-05-14T12:36:47;26.90;99.90
12885;DHT22;6510;51.362;7.370;2023-05-14T12:39:12;26.70;99.90
12885;DHT22;6510;51.362;7.370;2023-05-14T12:41:38;26.60;99.70
12885;DHT22;6510;51.362;7.370;2023-05-14T12:44:04;27.20;99.90
12885;DHT22;6510;51.362;7.370;2023-05-14T12:46:31;26.00;99.90
12885;DHT22;6510;51.362;7.370;2023-05-14T12:48:58;24.80;99.90
12885;DHT22;6510;51.362;7.370;2023-05-14T12:51:24;24.40;99.90
12885;DHT22;6510;51.362;7.370;2023-05-14T12:53:50;25.90;99.90
12885;DHT22;6510;51.362;7.370;2023-05-14T12:56:18;25.40;99.90
12885;DHT22;6510;51.362;7.370;2023-05-14T12:58:44;25.90;99.90
12885;DHT22;6510;51.362;7.370;2023-05-14T13:01:11;26.10;99.90
12885;DHT22;6510;51.362;7.370;2023-05-14T13:03:37;26.20;99.90
12885;DHT22;6510;51.362;7.370;2023-05-14T13:06:02;24.90;99.90
12885;DHT22;6510;51.362;7.370;2023-05-14T13:08:28;25.40;99.90
12885;DHT22;6510;51.362;7.370;2023-05-14T13:10:54;25.30;99.90
12885;DHT22;6510;51.362;7.370;2023-05-14T13:13:20;25.50;99.90
12885;DHT22;6510;51.362;7.370;2023-05-14T13:15:46;25.90;99.90
12885;DHT22;6510;51.362;7.370;2023-05-14T13:18:12;24.30;99.90
12885;DHT22;6510;51.362;7.370;2023-05-14T13:20:38;23.50;99.90
12885;DHT22;6510;51.362;7.370;2023-05-14T13:23:04;22.70;99.90
12885;DHT22;6510;51.362;7.370;2023-05-14T13:25:29;23.00;99.90
12885;DHT22;6510;51.362;7.370;2023-05-14T13:27:55;23.00;99.90
12885;DHT22;6510;51.362;7.370;2023-05-14T13:30:21;22.50;99.90
12885;DHT22;6510;51.362;7.370;2023-05-14T13:32:47;22.80;99.90
12885;DHT22;6510;51.362;7.370;2023-05-14T13:35:12;23.10;99.90
12885;DHT22;6510;51.362;7.370;2023-05-14T13:37:38;23.90;99.90
12885;DHT22;6510;51.362;7.370;2023-05-14T13:40:04;23.70;99.90
12885;DHT22;6510;51.362;7.370;2023-05-14T13:42:33;22.90;99.90
12885;DHT22;6510;51.362;7.370;2023-05-14T13:44:59;22.80;99.90
12885;DHT22;6510;51.362;7.370;2023-05-14T13:47:25;22.50;99.90
12885;DHT22;6510;51.362;7.370;2023-05-14T13:49:52;22.50;99.90
12885;DHT22;6510;51.362;7.370;2023-05-14T13:52:18;22.60;99.90
12885;DHT22;6510;51.362;7.370;2023-05-14T13:54:43;23.00;99.90
12885;DHT22;6510;51.362;7.370;2023-05-14T13:57:09;23.70;99.90
12885;DHT22;6510;51.362;7.370;2023-05-14T13:59:35;23.70;99.90
12885;DHT22;6510;51.362;7.370;2023-05-14T14:02:01;23.80;99.90
12885;DHT22;6510;51.362;7.370;2023-05-14T14:04:26;23.70;99.90
12885;DHT22;6510;51.362;7.370;2023-05-14T14:07:01;23.80;99.90
12885;DHT22;6510;51.362;7.370;2023-05-14T14:09:26;23.20;99.90
12885;DHT22;6510;51.362;7.370;2023-05-14T14:11:52;22.90;99.90
12885;DHT22;6510;51.362;7.370;2023-05-14T14:14:17;23.80;99.90
12885;DHT22;6510;51.362;7.370;2023-05-14T14:16:43;24.40;99.90
12885;DHT22;6510;51.362;7.370;2023-05-14T14:19:09;24.10;99.90
12885;DHT22;6510;51.362;7.370;2023-05-14T14:21:36;23.50;99.90
12885;DHT22;6510;51.362;7.370;2023-05-14T14:24:04;23.00;99.90
12885;DHT22;6510;51.362;7.370;2023-05-14T14:26:30;22.30;99.90
12885;DHT22;6510;51.362;7.370;2023-05-14T14:28:56;21.70;99.90
12885;DHT22;6510;51.362;7.370;2023-05-14T14:31:21;21.30;99.90
12885;DHT22;6510;51.362;7.370;2023-05-14T14:33:47;21.00;99.90
12885;DHT22;6510;51.362;7.370;2023-05-14T14:36:13;21.00;99.90
12885;DHT22;6510;51.362;7.370;2023-05-14T14:38:38;21.30;99.90
12885;DHT22;6510;51.362;7.370;2023-05-14T14:41:04;21.30;99.90
12885;DHT22;6510;51.362;7.370;2023-05-14T14:43:33;21.10;99.90
12885;DHT22;6510;51.362;7.370;2023-05-14T14:45:58;21.20;99.90
12885;DHT22;6510;51.362;7.370;2023-05-14T14:50:53;21.20;99.90
12885;DHT22;6510;51.362;7.370;2023-05-14T14:53:22;21.40;99.90
12885;DHT22;6510;51.362;7.370;2023-05-14T14:55:48;22.30;99.90
12885;DHT22;6510;51.362;7.370;2023-05-14T14:58:14;22.90;99.90
12885;DHT22;6510;51.362;7.370;2023-05-14T15:00:40;23.10;99.90
12885;DHT22;6510;51.362;7.370;2023-05-14T15:03:06;23.30;99.90
12885;DHT22;6510;51.362;7.370;2023-05-14T15:05:34;23.50;99.90
12885;DHT22;6510;51.362;7.370;2023-05-14T15:07:59;23.40;99.90
12885;DHT22;6510;51.362;7.370;2023-05-14T15:10:27;22.80;99.90
12885;DHT22;6510;51.362;7.370;2023-05-14T15:12:55;22.60;99.90
12885;DHT22;6510;51.362;7.370;2023-05-14T15:15:21;22.00;99.90
12885;DHT22;6510;51.362;7.370;2023-05-14T15:17:46;21.40;99.90
12885;DHT22;6510;51.362;7.370;2023-05-14T15:20:12;21.10;99.90
12885;DHT22;6510;51.362;7.370;2023-05-14T15:22:37;20.90;99.90
12885;DHT22;6510;51.362;7.370;2023-05-14T15:25:03;21.10;99.90
12885;DHT22;6510;51.362;7.370;2023-05-14T15:27:32;20.90;99.90
12885;DHT22;6510;51.362;7.370;2023-05-14T15:29:57;20.90;99.90
12885;DHT22;6510;51.362;7.370;2023-05-14T15:32:23;20.80;99.90
12885;DHT22;6510;51.362;7.370;2023-05-14T15:34:51;20.80;99.90
12885;DHT22;6510;51.362;7.370;2023-05-14T15:37:16;20.70;99.90
12885;DHT22;6510;51.362;7.370;2023-05-14T15:39:42;20.70;99.90
12885;DHT22;6510;51.362;7.370;2023-05-14T15:42:09;20.70;99.90
12885;DHT22;6510;51.362;7.370;2023-05-14T15:44:35;20.80;99.90
12885;DHT22;6510;51.362;7.370;2023-05-14T15:47:01;20.50;99.90
12885;DHT22;6510;51.362;7.370;2023-05-14T15:49:26;20.70;99.90
12885;DHT22;6510;51.362;7.370;2023-05-14T15:51:52;20.80;99.90
12885;DHT22;6510;51.362;7.370;2023-05-14T15:54:18;21.00;99.90
12885;DHT22;6510;51.362;7.370;2023-05-14T15:56:44;21.00;99.90